CheckWX is a tool to help pilots better visualize weather data.  It is not intended as a substitute for an official pre-flight weather briefing.

16:11:45 UTC

RJBB TAF
Kansai International Airport
Osaka, Japan
TAF RJBB 111106Z 1112/1218 25008KT 9999 FEW008 SCT015 BKN030 BECMG 1209/1212 04006KT

Jul-11@
12:00 UTC

Jul-11 @ 12:00 UTC

Jul-12@
09:00 UTC

Jul-12 @ 09:00 UTC

TAF RJBB 111106Z 1112/1218 25008KT 9999 FEW008 SCT015 BKN030

Expired

Wind
  • 250° at 8 KTS
Cloud Levels
  • Few at 800' AGL
  • Scattered at 1,500' AGL
  • Broken at 3,000' AGL

Jul-12@
09:00 UTC

Jul-12 @ 09:00 UTC

Jul-12@
18:00 UTC

Jul-12 @ 18:00 UTC

BECMG 1209/1212 04006KT

Becoming

Becoming Conditions expected by Sun, Jul 12, 2020 @ 12:00 UTC

Wind
  • 040° at 6 KTS
Cloud Levels
  • Few at 800' AGL
  • Scattered at 1,500' AGL
  • Broken at 3,000' AGL